LIMCLIPE

Guest
Details From LIMC - Milano Malpensa
To LIPE - BOLOGNA
Flight Number -
Tags decoded
Created
Modified
Stats Distance 130 nm / 241 km
Max Altitude 0 ft / 0 m
Waypoints 4
Social Downloads 7
Likes 0
Share VATSIM

Download

Looking for another format? Having issues loading an existing format? Contact us
Advertisement - Login to hide

Notes

Requested: LIMC SRN L153 ROBAS L153 OSBUL Y765 INDIR LIPE Unmatched points: L153 OSBUL Y765 INDIR

Route

LIMC SRN L153 ROBAS LIPE

ID Type Via Altitude Latitude Longitude Leg Dist Tot Dist Heading (true) Name
O LIMC APT - 0 ft / 0 m 45.63061˚ 8.72811˚ - 0 nm - Milano Malpensa
SRN NDB - 0 ft / 0 m 45.64667˚ 9.02278˚ 12 nm 12 nm 85° / 86° SARONNO NDB
ROBAS FIX L153 (AWY-LO) 0 ft / 0 m 45.19361˚ 9.72611˚ 40 nm 52 nm 132° / 133° -
O LIPE APT - 0 ft / 0 m 44.53545˚ 11.28866˚ 77 nm 130 nm 120° / 121° BOLOGNA

Altitude Profile

Advertisement - Login to hide

LIMC

Details ICAO LIMC (MXP)
Name Milano Malpensa
Region Italy
Timezone Europe/Rome (UTC+2.0)
Stats Elevation 767 ft / 234 m (AMSL)
Location 45.630606° 8.728111°
Runways 2
Magnetic Variation 2.439° E

METAR

LIMC 250350Z VRB02KT CAVOK 18/12 Q1015 NOSIG

Decode

TAF

TAF LIMC 242300Z 2500/2606 VRB05KT 9999 SCT050

Decode

Departure Runways

ID Width Length Bearing (true) Bearing (mag) Surface Threshold Offset Overrun Length
17L 197 ft / 60 m 12,869 ft / 3,923 m 169.62° 167.18° Asphalt 3,094 ft / 943 m 0 ft / 0 m
17R 197 ft / 60 m 12,869 ft / 3,923 m 169.62° 167.18° Asphalt 0 ft / 0 m 0 ft / 0 m
35L 197 ft / 60 m 12,869 ft / 3,923 m 349.62° 347.18° Asphalt 1,329 ft / 405 m 0 ft / 0 m
35R 197 ft / 60 m 12,869 ft / 3,923 m 349.62° 347.18° Asphalt 0 ft / 0 m 0 ft / 0 m

LIPE

Details ICAO LIPE (BLQ)
Name BOLOGNA
Region Italy
Timezone Europe/Rome (UTC+2.0)
Stats Elevation 123 ft / 37 m (AMSL)
Location 44.535446° 11.288662°
Runways 1
Magnetic Variation 2.977° E

METAR

LIPE 250350Z VRB02KT CAVOK 15/13 Q1016

Decode

TAF

TAF LIPE 242300Z 2500/2524 VRB04KT 9999 SCT040 TEMPO 2504/2512 TSRA BECMG 2509/2511 10010KT BECMG 2517/2519 VRB05KT

Decode

Destination Runways

ID Width Length Bearing (true) Bearing (mag) Surface Threshold Offset Overrun Length
12 148 ft / 45 m 9,185 ft / 2,800 m 116.78° 113.80° Asphalt 1,007 ft / 307 m 0 ft / 0 m
30 148 ft / 45 m 9,185 ft / 2,800 m 296.81° 293.83° Asphalt 1,188 ft / 362 m 200 ft / 61 m

Approach Navaids

Runway Type Ident Frequency Range Bearing (true) Bearing (mag) Slope Elevation
12 Localiser BLN 108.90 MHz 18 nm / 33 km 116.81° 113.83° - 123 ft / 37 m (AMSL)
12 Glidescope BLN 108.90 MHz 10 nm / 19 km 116.80° 113.82° 3.00° 120 ft / 37 m (AMSL)
12 DME BLN 108.90 MHz 18 nm / 33 km - - - 131 ft / 40 m (AMSL)
30 Localiser IBBP 109.75 MHz 18 nm / 33 km 296.66° 293.68° - 123 ft / 37 m (AMSL)
30 Glidescope IBBP 109.75 MHz 10 nm / 19 km 296.88° 293.90° 3.50° 123 ft / 37 m (AMSL)
30 DME IBBP 109.75 MHz 18 nm / 33 km - - - 123 ft / 37 m (AMSL)

Popular Alternatives